sensor_id;sensor_type;location;lat;lon;timestamp;P1;durP1;ratioP1;P2;durP2;ratioP2
3081;SDS011;1551;51.046;7.010;2023-06-22T00:58:58;5.40;;;3.35;;
3081;SDS011;1551;51.046;7.010;2023-06-22T01:01:48;4.55;;;3.00;;
3081;SDS011;1551;51.046;7.010;2023-06-22T01:04:38;3.67;;;2.75;;
3081;SDS011;1551;51.046;7.010;2023-06-22T01:07:31;4.35;;;2.80;;
3081;SDS011;1551;51.046;7.010;2023-06-22T01:10:40;4.35;;;3.28;;
3081;SDS011;1551;51.046;7.010;2023-06-22T01:13:43;3.60;;;2.75;;
3081;SDS011;1551;51.046;7.010;2023-06-22T01:16:38;3.90;;;2.40;;
3081;SDS011;1551;51.046;7.010;2023-06-22T01:22:30;3.67;;;2.50;;
3081;SDS011;1551;51.046;7.010;2023-06-22T01:25:45;4.78;;;2.92;;
3081;SDS011;1551;51.046;7.010;2023-06-22T01:28:49;4.80;;;2.80;;
3081;SDS011;1551;51.046;7.010;2023-06-22T01:31:41;3.83;;;2.55;;
3081;SDS011;1551;51.046;7.010;2023-06-22T01:34:34;5.03;;;3.00;;
3081;SDS011;1551;51.046;7.010;2023-06-22T01:37:27;4.43;;;3.00;;
3081;SDS011;1551;51.046;7.010;2023-06-22T01:40:17;4.23;;;2.97;;
3081;SDS011;1551;51.046;7.010;2023-06-22T01:43:08;4.15;;;3.10;;
3081;SDS011;1551;51.046;7.010;2023-06-22T01:46:00;4.33;;;3.00;;
3081;SDS011;1551;51.046;7.010;2023-06-22T01:48:50;3.65;;;2.80;;
3081;SDS011;1551;51.046;7.010;2023-06-22T01:51:40;4.43;;;3.20;;
3081;SDS011;1551;51.046;7.010;2023-06-22T01:54:29;4.20;;;3.10;;
3081;SDS011;1551;51.046;7.010;2023-06-22T01:57:18;6.97;;;3.63;;
3081;SDS011;1551;51.046;7.010;2023-06-22T02:00:09;4.20;;;3.42;;
3081;SDS011;1551;51.046;7.010;2023-06-22T02:03:19;6.20;;;3.20;;
3081;SDS011;1551;51.046;7.010;2023-06-22T02:06:19;4.78;;;2.92;;
3081;SDS011;1551;51.046;7.010;2023-06-22T02:09:14;5.00;;;3.40;;
3081;SDS011;1551;51.046;7.010;2023-06-22T02:12:05;4.70;;;3.70;;
3081;SDS011;1551;51.046;7.010;2023-06-22T02:14:57;4.22;;;3.08;;
3081;SDS011;1551;51.046;7.010;2023-06-22T02:17:47;4.60;;;3.10;;
3081;SDS011;1551;51.046;7.010;2023-06-22T02:20:37;4.00;;;3.10;;
3081;SDS011;1551;51.046;7.010;2023-06-22T02:23:26;3.80;;;3.00;;
3081;SDS011;1551;51.046;7.010;2023-06-22T02:26:16;5.43;;;3.03;;
3081;SDS011;1551;51.046;7.010;2023-06-22T02:29:06;4.25;;;3.38;;
3081;SDS011;1551;51.046;7.010;2023-06-22T02:31:55;4.57;;;3.20;;
3081;SDS011;1551;51.046;7.010;2023-06-22T02:34:44;3.75;;;2.92;;
3081;SDS011;1551;51.046;7.010;2023-06-22T02:37:37;4.65;;;3.20;;
3081;SDS011;1551;51.046;7.010;2023-06-22T02:40:30;4.18;;;3.03;;
3081;SDS011;1551;51.046;7.010;2023-06-22T02:43:19;5.40;;;3.30;;
3081;SDS011;1551;51.046;7.010;2023-06-22T02:46:08;4.25;;;3.17;;
3081;SDS011;1551;51.046;7.010;2023-06-22T02:48:57;6.40;;;4.00;;
3081;SDS011;1551;51.046;7.010;2023-06-22T02:51:46;4.75;;;2.95;;
3081;SDS011;1551;51.046;7.010;2023-06-22T02:54:39;5.00;;;3.70;;
3081;SDS011;1551;51.046;7.010;2023-06-22T02:57:28;5.82;;;3.90;;
3081;SDS011;1551;51.046;7.010;2023-06-22T03:00:17;3.90;;;2.80;;
3081;SDS011;1551;51.046;7.010;2023-06-22T03:03:08;4.40;;;3.45;;
3081;SDS011;1551;51.046;7.010;2023-06-22T03:05:57;6.10;;;3.50;;
3081;SDS011;1551;51.046;7.010;2023-06-22T03:08:47;5.47;;;3.60;;
3081;SDS011;1551;51.046;7.010;2023-06-22T03:11:36;5.50;;;3.60;;
3081;SDS011;1551;51.046;7.010;2023-06-22T03:14:25;6.93;;;4.00;;
3081;SDS011;1551;51.046;7.010;2023-06-22T03:17:15;5.33;;;4.00;;
3081;SDS011;1551;51.046;7.010;2023-06-22T03:20:05;6.30;;;4.03;;
3081;SDS011;1551;51.046;7.010;2023-06-22T03:22:59;4.90;;;3.80;;
3081;SDS011;1551;51.046;7.010;2023-06-22T03:25:48;5.40;;;4.00;;
3081;SDS011;1551;51.046;7.010;2023-06-22T03:28:37;7.13;;;4.00;;
3081;SDS011;1551;51.046;7.010;2023-06-22T03:31:26;5.45;;;3.80;;
3081;SDS011;1551;51.046;7.010;2023-06-22T03:34:15;4.77;;;3.53;;
3081;SDS011;1551;51.046;7.010;2023-06-22T03:37:04;4.95;;;4.00;;
3081;SDS011;1551;51.046;7.010;2023-06-22T03:39:53;3.90;;;3.10;;
3081;SDS011;1551;51.046;7.010;2023-06-22T03:42:43;5.10;;;3.13;;
3081;SDS011;1551;51.046;7.010;2023-06-22T03:45:32;5.63;;;3.22;;
3081;SDS011;1551;51.046;7.010;2023-06-22T03:48:21;5.10;;;2.90;;
3081;SDS011;1551;51.046;7.010;2023-06-22T03:51:10;4.80;;;3.50;;
3081;SDS011;1551;51.046;7.010;2023-06-22T03:53:59;6.10;;;3.60;;
3081;SDS011;1551;51.046;7.010;2023-06-22T03:56:48;4.60;;;3.15;;
3081;SDS011;1551;51.046;7.010;2023-06-22T03:59:37;5.10;;;3.40;;
3081;SDS011;1551;51.046;7.010;2023-06-22T04:02:26;5.77;;;3.40;;
3081;SDS011;1551;51.046;7.010;2023-06-22T04:05:15;5.30;;;3.30;;
3081;SDS011;1551;51.046;7.010;2023-06-22T04:08:07;4.90;;;3.60;;
3081;SDS011;1551;51.046;7.010;2023-06-22T04:10:56;4.93;;;3.08;;
3081;SDS011;1551;51.046;7.010;2023-06-22T04:13:45;3.90;;;2.90;;
3081;SDS011;1551;51.046;7.010;2023-06-22T04:16:34;5.45;;;3.20;;
3081;SDS011;1551;51.046;7.010;2023-06-22T04:19:23;5.43;;;3.10;;
3081;SDS011;1551;51.046;7.010;2023-06-22T04:22:12;4.05;;;2.92;;
3081;SDS011;1551;51.046;7.010;2023-06-22T04:25:01;5.00;;;3.40;;
3081;SDS011;1551;51.046;7.010;2023-06-22T04:27:50;5.53;;;3.25;;
3081;SDS011;1551;51.046;7.010;2023-06-22T04:30:39;5.80;;;3.75;;
3081;SDS011;1551;51.046;7.010;2023-06-22T04:33:34;4.50;;;2.80;;
3081;SDS011;1551;51.046;7.010;2023-06-22T04:36:23;4.85;;;3.08;;
3081;SDS011;1551;51.046;7.010;2023-06-22T04:39:12;5.90;;;3.40;;
3081;SDS011;1551;51.046;7.010;2023-06-22T04:42:01;5.53;;;3.17;;
3081;SDS011;1551;51.046;7.010;2023-06-22T04:44:51;3.88;;;3.03;;
3081;SDS011;1551;51.046;7.010;2023-06-22T04:47:39;4.60;;;3.67;;
3081;SDS011;1551;51.046;7.010;2023-06-22T04:50:29;4.45;;;3.40;;
3081;SDS011;1551;51.046;7.010;2023-06-22T04:53:18;4.57;;;3.40;;
3081;SDS011;1551;51.046;7.010;2023-06-22T04:56:08;4.18;;;3.28;;
3081;SDS011;1551;51.046;7.010;2023-06-22T04:58:57;5.40;;;3.90;;
3081;SDS011;1551;51.046;7.010;2023-06-22T05:01:46;5.15;;;3.38;;
3081;SDS011;1551;51.046;7.010;2023-06-22T05:04:35;5.40;;;4.22;;
3081;SDS011;1551;51.046;7.010;2023-06-22T05:07:26;6.90;;;4.53;;
3081;SDS011;1551;51.046;7.010;2023-06-22T05:10:16;5.57;;;4.27;;
3081;SDS011;1551;51.046;7.010;2023-06-22T05:13:05;7.40;;;4.75;;
3081;SDS011;1551;51.046;7.010;2023-06-22T05:15:54;6.28;;;4.60;;
3081;SDS011;1551;51.046;7.010;2023-06-22T05:18:54;6.72;;;4.60;;
3081;SDS011;1551;51.046;7.010;2023-06-22T05:21:43;6.77;;;5.20;;
3081;SDS011;1551;51.046;7.010;2023-06-22T05:24:32;8.50;;;5.20;;
3081;SDS011;1551;51.046;7.010;2023-06-22T05:27:21;6.22;;;5.40;;
3081;SDS011;1551;51.046;7.010;2023-06-22T05:30:10;7.07;;;5.25;;
3081;SDS011;1551;51.046;7.010;2023-06-22T05:33:00;6.90;;;6.10;;
3081;SDS011;1551;51.046;7.010;2023-06-22T05:35:49;7.17;;;5.67;;
3081;SDS011;1551;51.046;7.010;2023-06-22T05:38:38;7.32;;;6.07;;
3081;SDS011;1551;51.046;7.010;2023-06-22T05:41:28;6.75;;;5.50;;
3081;SDS011;1551;51.046;7.010;2023-06-22T05:44:17;7.35;;;5.00;;
3081;SDS011;1551;51.046;7.010;2023-06-22T05:47:07;6.10;;;4.90;;
3081;SDS011;1551;51.046;7.010;2023-06-22T05:49:56;6.63;;;5.28;;
3081;SDS011;1551;51.046;7.010;2023-06-22T05:52:45;7.03;;;5.97;;
3081;SDS011;1551;51.046;7.010;2023-06-22T05:55:34;7.70;;;5.33;;
3081;SDS011;1551;51.046;7.010;2023-06-22T05:58:23;7.82;;;5.45;;
3081;SDS011;1551;51.046;7.010;2023-06-22T06:01:12;6.80;;;5.43;;
3081;SDS011;1551;51.046;7.010;2023-06-22T06:04:01;6.47;;;5.88;;
3081;SDS011;1551;51.046;7.010;2023-06-22T06:06:53;6.55;;;5.85;;
3081;SDS011;1551;51.046;7.010;2023-06-22T06:09:42;7.93;;;6.07;;
3081;SDS011;1551;51.046;7.010;2023-06-22T06:12:31;7.83;;;6.47;;
3081;SDS011;1551;51.046;7.010;2023-06-22T06:15:20;6.43;;;5.82;;
3081;SDS011;1551;51.046;7.010;2023-06-22T06:18:10;8.90;;;5.60;;
3081;SDS011;1551;51.046;7.010;2023-06-22T06:20:59;8.23;;;6.32;;
3081;SDS011;1551;51.046;7.010;2023-06-22T06:23:48;6.22;;;5.63;;
3081;SDS011;1551;51.046;7.010;2023-06-22T06:26:37;6.50;;;5.80;;
3081;SDS011;1551;51.046;7.010;2023-06-22T06:29:26;6.80;;;6.00;;
3081;SDS011;1551;51.046;7.010;2023-06-22T06:32:15;6.60;;;5.97;;
3081;SDS011;1551;51.046;7.010;2023-06-22T06:35:05;7.60;;;6.70;;
3081;SDS011;1551;51.046;7.010;2023-06-22T06:37:55;7.32;;;5.93;;
3081;SDS011;1551;51.046;7.010;2023-06-22T06:40:44;7.60;;;6.50;;
3081;SDS011;1551;51.046;7.010;2023-06-22T06:43:34;7.78;;;6.97;;
3081;SDS011;1551;51.046;7.010;2023-06-22T06:46:22;7.50;;;6.80;;
3081;SDS011;1551;51.046;7.010;2023-06-22T06:49:11;7.05;;;6.35;;
3081;SDS011;1551;51.046;7.010;2023-06-22T06:52:01;8.00;;;7.20;;
3081;SDS011;1551;51.046;7.010;2023-06-22T06:54:51;7.50;;;6.70;;
3081;SDS011;1551;51.046;7.010;2023-06-22T06:57:41;6.85;;;6.25;;
3081;SDS011;1551;51.046;7.010;2023-06-22T07:00:30;7.10;;;6.20;;
3081;SDS011;1551;51.046;7.010;2023-06-22T07:03:19;7.43;;;6.38;;
3081;SDS011;1551;51.046;7.010;2023-06-22T07:06:08;7.13;;;6.43;;
3081;SDS011;1551;51.046;7.010;2023-06-22T07:08:57;7.22;;;6.30;;
3081;SDS011;1551;51.046;7.010;2023-06-22T07:11:46;6.67;;;5.90;;
3081;SDS011;1551;51.046;7.010;2023-06-22T07:14:35;7.18;;;6.20;;
3081;SDS011;1551;51.046;7.010;2023-06-22T07:17:24;7.30;;;6.60;;
3081;SDS011;1551;51.046;7.010;2023-06-22T07:20:13;7.00;;;5.80;;
3081;SDS011;1551;51.046;7.010;2023-06-22T07:23:02;12.10;;;7.00;;
3081;SDS011;1551;51.046;7.010;2023-06-22T07:25:52;7.13;;;6.43;;
3081;SDS011;1551;51.046;7.010;2023-06-22T07:28:41;10.43;;;6.87;;
3081;SDS011;1551;51.046;7.010;2023-06-22T07:31:30;7.13;;;6.43;;
3081;SDS011;1551;51.046;7.010;2023-06-22T07:34:19;9.18;;;8.27;;
3081;SDS011;1551;51.046;7.010;2023-06-22T07:37:08;8.32;;;6.18;;
3081;SDS011;1551;51.046;7.010;2023-06-22T07:39:57;8.02;;;6.57;;
3081;SDS011;1551;51.046;7.010;2023-06-22T07:42:47;8.00;;;6.00;;
3081;SDS011;1551;51.046;7.010;2023-06-22T07:45:37;6.90;;;6.20;;
3081;SDS011;1551;51.046;7.010;2023-06-22T07:48:29;6.90;;;6.05;;
3081;SDS011;1551;51.046;7.010;2023-06-22T07:51:17;7.00;;;6.30;;
3081;SDS011;1551;51.046;7.010;2023-06-22T07:54:06;7.40;;;6.70;;
3081;SDS011;1551;51.046;7.010;2023-06-22T07:56:56;7.13;;;6.40;;
3081;SDS011;1551;51.046;7.010;2023-06-22T07:59:45;7.00;;;6.30;;
3081;SDS011;1551;51.046;7.010;2023-06-22T08:02:34;7.07;;;5.95;;
3081;SDS011;1551;51.046;7.010;2023-06-22T08:05:22;6.68;;;5.43;;
3081;SDS011;1551;51.046;7.010;2023-06-22T08:08:12;6.70;;;6.00;;
3081;SDS011;1551;51.046;7.010;2023-06-22T08:11:03;6.93;;;6.22;;
3081;SDS011;1551;51.046;7.010;2023-06-22T08:13:52;8.33;;;5.93;;
3081;SDS011;1551;51.046;7.010;2023-06-22T08:16:41;7.88;;;5.53;;
3081;SDS011;1551;51.046;7.010;2023-06-22T08:19:31;5.37;;;4.87;;
3081;SDS011;1551;51.046;7.010;2023-06-22T08:22:20;6.20;;;5.60;;
3081;SDS011;1551;51.046;7.010;2023-06-22T08:25:09;6.10;;;5.50;;
3081;SDS011;1551;51.046;7.010;2023-06-22T08:27:58;7.50;;;5.25;;
3081;SDS011;1551;51.046;7.010;2023-06-22T08:30:47;5.63;;;5.13;;
3081;SDS011;1551;51.046;7.010;2023-06-22T08:33:36;6.20;;;5.38;;
3081;SDS011;1551;51.046;7.010;2023-06-22T08:36:25;6.25;;;5.22;;
3081;SDS011;1551;51.046;7.010;2023-06-22T08:39:18;6.45;;;5.25;;
3081;SDS011;1551;51.046;7.010;2023-06-22T08:42:10;6.20;;;5.60;;
3081;SDS011;1551;51.046;7.010;2023-06-22T08:45:00;5.95;;;5.20;;
3081;SDS011;1551;51.046;7.010;2023-06-22T08:47:49;6.78;;;6.18;;
3081;SDS011;1551;51.046;7.010;2023-06-22T08:50:38;6.80;;;6.15;;
3081;SDS011;1551;51.046;7.010;2023-06-22T08:53:29;6.28;;;5.40;;
3081;SDS011;1551;51.046;7.010;2023-06-22T08:56:18;6.80;;;6.20;;
3081;SDS011;1551;51.046;7.010;2023-06-22T08:59:07;8.20;;;6.10;;
3081;SDS011;1551;51.046;7.010;2023-06-22T09:01:56;7.30;;;6.60;;
3081;SDS011;1551;51.046;7.010;2023-06-22T09:04:45;6.72;;;6.07;;
3081;SDS011;1551;51.046;7.010;2023-06-22T09:07:34;6.43;;;5.82;;
3081;SDS011;1551;51.046;7.010;2023-06-22T09:10:24;6.80;;;6.00;;
3081;SDS011;1551;51.046;7.010;2023-06-22T09:13:13;6.72;;;5.90;;
3081;SDS011;1551;51.046;7.010;2023-06-22T09:16:02;7.70;;;6.00;;
3081;SDS011;1551;51.046;7.010;2023-06-22T09:18:52;6.50;;;5.70;;
3081;SDS011;1551;51.046;7.010;2023-06-22T09:21:40;6.80;;;5.82;;
3081;SDS011;1551;51.046;7.010;2023-06-22T09:24:29;6.38;;;5.50;;
3081;SDS011;1551;51.046;7.010;2023-06-22T09:27:18;6.00;;;5.40;;
3081;SDS011;1551;51.046;7.010;2023-06-22T09:30:07;7.05;;;5.55;;
3081;SDS011;1551;51.046;7.010;2023-06-22T09:32:57;6.60;;;5.90;;
3081;SDS011;1551;51.046;7.010;2023-06-22T09:35:46;6.03;;;5.38;;
3081;SDS011;1551;51.046;7.010;2023-06-22T09:38:38;5.57;;;4.97;;
3081;SDS011;1551;51.046;7.010;2023-06-22T09:41:27;6.63;;;6.00;;
3081;SDS011;1551;51.046;7.010;2023-06-22T09:44:16;6.90;;;5.55;;
3081;SDS011;1551;51.046;7.010;2023-06-22T09:47:05;6.40;;;5.80;;
3081;SDS011;1551;51.046;7.010;2023-06-22T09:49:55;5.80;;;5.20;;
3081;SDS011;1551;51.046;7.010;2023-06-22T09:52:44;6.80;;;5.20;;
3081;SDS011;1551;51.046;7.010;2023-06-22T09:55:35;6.03;;;5.30;;
3081;SDS011;1551;51.046;7.010;2023-06-22T09:58:24;9.05;;;5.40;;
3081;SDS011;1551;51.046;7.010;2023-06-22T10:01:13;5.33;;;4.83;;
3081;SDS011;1551;51.046;7.010;2023-06-22T10:04:04;6.47;;;5.88;;
3081;SDS011;1551;51.046;7.010;2023-06-22T10:06:53;6.67;;;5.40;;
3081;SDS011;1551;51.046;7.010;2023-06-22T10:09:45;6.10;;;5.07;;
3081;SDS011;1551;51.046;7.010;2023-06-22T10:12:33;6.03;;;5.43;;
3081;SDS011;1551;51.046;7.010;2023-06-22T10:15:23;7.20;;;5.40;;
3081;SDS011;1551;51.046;7.010;2023-06-22T10:18:12;7.88;;;5.63;;
3081;SDS011;1551;51.046;7.010;2023-06-22T10:21:02;6.55;;;5.85;;
3081;SDS011;1551;51.046;7.010;2023-06-22T10:23:51;5.85;;;5.25;;
3081;SDS011;1551;51.046;7.010;2023-06-22T10:26:39;7.15;;;5.35;;
3081;SDS011;1551;51.046;7.010;2023-06-22T10:29:28;6.13;;;5.53;;
3081;SDS011;1551;51.046;7.010;2023-06-22T10:32:17;6.70;;;5.87;;
3081;SDS011;1551;51.046;7.010;2023-06-22T10:35:06;7.32;;;5.60;;
3081;SDS011;1551;51.046;7.010;2023-06-22T10:37:56;6.70;;;5.45;;
3081;SDS011;1551;51.046;7.010;2023-06-22T10:40:45;7.05;;;5.90;;
3081;SDS011;1551;51.046;7.010;2023-06-22T10:43:34;6.95;;;6.10;;
3081;SDS011;1551;51.046;7.010;2023-06-22T10:46:26;7.22;;;6.10;;
3081;SDS011;1551;51.046;7.010;2023-06-22T10:49:16;8.20;;;6.40;;
3081;SDS011;1551;51.046;7.010;2023-06-22T10:52:06;8.60;;;7.03;;
3081;SDS011;1551;51.046;7.010;2023-06-22T10:54:56;11.93;;;7.40;;
3081;SDS011;1551;51.046;7.010;2023-06-22T10:57:46;9.43;;;7.38;;
3081;SDS011;1551;51.046;7.010;2023-06-22T11:00:35;14.38;;;8.93;;
3081;SDS011;1551;51.046;7.010;2023-06-22T11:03:24;14.77;;;9.32;;
3081;SDS011;1551;51.046;7.010;2023-06-22T11:06:13;12.85;;;8.15;;
3081;SDS011;1551;51.046;7.010;2023-06-22T11:09:03;11.98;;;9.07;;
3081;SDS011;1551;51.046;7.010;2023-06-22T11:11:53;12.48;;;9.00;;
3081;SDS011;1551;51.046;7.010;2023-06-22T11:14:42;10.98;;;8.65;;
3081;SDS011;1551;51.046;7.010;2023-06-22T11:17:31;11.50;;;9.85;;
3081;SDS011;1551;51.046;7.010;2023-06-22T11:20:20;10.67;;;9.53;;
3081;SDS011;1551;51.046;7.010;2023-06-22T11:23:09;12.40;;;9.70;;
3081;SDS011;1551;51.046;7.010;2023-06-22T11:25:58;12.50;;;9.17;;
3081;SDS011;1551;51.046;7.010;2023-06-22T11:28:47;13.75;;;10.23;;
3081;SDS011;1551;51.046;7.010;2023-06-22T11:31:36;12.52;;;10.45;;
3081;SDS011;1551;51.046;7.010;2023-06-22T11:34:25;14.35;;;9.88;;
3081;SDS011;1551;51.046;7.010;2023-06-22T11:37:14;11.52;;;9.80;;
3081;SDS011;1551;51.046;7.010;2023-06-22T11:40:04;10.65;;;9.25;;
3081;SDS011;1551;51.046;7.010;2023-06-22T11:42:55;11.13;;;9.93;;
3081;SDS011;1551;51.046;7.010;2023-06-22T11:45:44;12.73;;;10.88;;
3081;SDS011;1551;51.046;7.010;2023-06-22T11:48:33;11.00;;;9.90;;
3081;SDS011;1551;51.046;7.010;2023-06-22T11:51:22;11.43;;;10.20;;
3081;SDS011;1551;51.046;7.010;2023-06-22T11:54:11;12.35;;;11.05;;
3081;SDS011;1551;51.046;7.010;2023-06-22T11:57:00;13.52;;;11.27;;
3081;SDS011;1551;51.046;7.010;2023-06-22T11:59:49;14.40;;;11.63;;
3081;SDS011;1551;51.046;7.010;2023-06-22T12:02:37;12.80;;;11.50;;
3081;SDS011;1551;51.046;7.010;2023-06-22T12:05:26;12.20;;;10.82;;
3081;SDS011;1551;51.046;7.010;2023-06-22T12:08:15;11.82;;;10.55;;
3081;SDS011;1551;51.046;7.010;2023-06-22T12:11:04;11.10;;;9.90;;
3081;SDS011;1551;51.046;7.010;2023-06-22T12:13:53;10.10;;;8.90;;
3081;SDS011;1551;51.046;7.010;2023-06-22T12:16:42;10.07;;;8.20;;
3081;SDS011;1551;51.046;7.010;2023-06-22T12:19:32;9.10;;;8.07;;
3081;SDS011;1551;51.046;7.010;2023-06-22T12:22:21;8.10;;;7.20;;
3081;SDS011;1551;51.046;7.010;2023-06-22T12:25:10;9.35;;;7.10;;
3081;SDS011;1551;51.046;7.010;2023-06-22T12:27:59;9.13;;;7.30;;
3081;SDS011;1551;51.046;7.010;2023-06-22T12:30:48;8.50;;;7.60;;
3081;SDS011;1551;51.046;7.010;2023-06-22T12:33:37;7.65;;;6.60;;
3081;SDS011;1551;51.046;7.010;2023-06-22T12:36:26;7.60;;;6.38;;
3081;SDS011;1551;51.046;7.010;2023-06-22T12:39:15;8.00;;;7.20;;
3081;SDS011;1551;51.046;7.010;2023-06-22T12:42:04;8.15;;;6.38;;
3081;SDS011;1551;51.046;7.010;2023-06-22T12:44:55;7.78;;;6.85;;
3081;SDS011;1551;51.046;7.010;2023-06-22T12:47:44;7.20;;;6.55;;
3081;SDS011;1551;51.046;7.010;2023-06-22T12:50:34;12.23;;;7.45;;
3081;SDS011;1551;51.046;7.010;2023-06-22T12:53:23;6.63;;;5.65;;
3081;SDS011;1551;51.046;7.010;2023-06-22T12:56:12;6.72;;;6.13;;
3081;SDS011;1551;51.046;7.010;2023-06-22T12:59:01;8.30;;;6.38;;
3081;SDS011;1551;51.046;7.010;2023-06-22T13:01:50;6.68;;;5.75;;
3081;SDS011;1551;51.046;7.010;2023-06-22T13:04:39;6.43;;;5.80;;
3081;SDS011;1551;51.046;7.010;2023-06-22T13:07:28;7.60;;;5.60;;
3081;SDS011;1551;51.046;7.010;2023-06-22T13:10:17;7.05;;;5.93;;
3081;SDS011;1551;51.046;7.010;2023-06-22T13:13:06;5.90;;;4.95;;
3081;SDS011;1551;51.046;7.010;2023-06-22T13:15:54;5.83;;;5.07;;
3081;SDS011;1551;51.046;7.010;2023-06-22T13:18:43;5.78;;;4.80;;
3081;SDS011;1551;51.046;7.010;2023-06-22T13:21:32;6.10;;;4.35;;
3081;SDS011;1551;51.046;7.010;2023-06-22T13:24:22;5.50;;;3.80;;
3081;SDS011;1551;51.046;7.010;2023-06-22T13:27:11;4.32;;;3.47;;
3081;SDS011;1551;51.046;7.010;2023-06-22T13:30:00;4.82;;;3.30;;
3081;SDS011;1551;51.046;7.010;2023-06-22T13:32:51;3.93;;;3.10;;
3081;SDS011;1551;51.046;7.010;2023-06-22T13:35:40;5.03;;;3.30;;
3081;SDS011;1551;51.046;7.010;2023-06-22T13:38:31;4.30;;;3.20;;
3081;SDS011;1551;51.046;7.010;2023-06-22T13:41:21;4.28;;;3.17;;
3081;SDS011;1551;51.046;7.010;2023-06-22T13:44:10;4.88;;;3.40;;
3081;SDS011;1551;51.046;7.010;2023-06-22T13:46:59;5.00;;;3.85;;
3081;SDS011;1551;51.046;7.010;2023-06-22T13:49:48;4.65;;;3.92;;
3081;SDS011;1551;51.046;7.010;2023-06-22T13:52:36;5.05;;;4.55;;
3081;SDS011;1551;51.046;7.010;2023-06-22T13:55:25;5.40;;;4.90;;
3081;SDS011;1551;51.046;7.010;2023-06-22T13:58:15;5.35;;;4.85;;
3081;SDS011;1551;51.046;7.010;2023-06-22T14:01:04;5.20;;;4.50;;
3081;SDS011;1551;51.046;7.010;2023-06-22T14:03:53;5.57;;;4.97;;
3081;SDS011;1551;51.046;7.010;2023-06-22T14:06:41;8.25;;;5.38;;
3081;SDS011;1551;51.046;7.010;2023-06-22T14:09:31;5.70;;;5.07;;
3081;SDS011;1551;51.046;7.010;2023-06-22T14:12:19;5.22;;;4.47;;
3081;SDS011;1551;51.046;7.010;2023-06-22T14:15:09;5.60;;;4.80;;
3081;SDS011;1551;51.046;7.010;2023-06-22T14:17:57;6.10;;;4.80;;
3081;SDS011;1551;51.046;7.010;2023-06-22T14:20:46;5.47;;;4.82;;
3081;SDS011;1551;51.046;7.010;2023-06-22T14:23:36;5.72;;;4.10;;
3081;SDS011;1551;51.046;7.010;2023-06-22T14:26:26;4.17;;;3.77;;
3081;SDS011;1551;51.046;7.010;2023-06-22T14:29:15;4.10;;;3.60;;
3081;SDS011;1551;51.046;7.010;2023-06-22T14:32:04;4.53;;;3.20;;
3081;SDS011;1551;51.046;7.010;2023-06-22T14:34:55;4.20;;;3.53;;
3081;SDS011;1551;51.046;7.010;2023-06-22T14:37:43;5.40;;;3.30;;
3081;SDS011;1551;51.046;7.010;2023-06-22T14:40:32;4.10;;;3.40;;
3081;SDS011;1551;51.046;7.010;2023-06-22T14:43:21;5.00;;;3.70;;
3081;SDS011;1551;51.046;7.010;2023-06-22T14:46:10;4.65;;;3.90;;
3081;SDS011;1551;51.046;7.010;2023-06-22T14:48:59;4.57;;;3.63;;
3081;SDS011;1551;51.046;7.010;2023-06-22T14:51:48;5.15;;;3.70;;
3081;SDS011;1551;51.046;7.010;2023-06-22T14:54:37;5.35;;;4.68;;
3081;SDS011;1551;51.046;7.010;2023-06-22T14:57:26;5.80;;;4.63;;
3081;SDS011;1551;51.046;7.010;2023-06-22T15:00:15;5.20;;;4.70;;
3081;SDS011;1551;51.046;7.010;2023-06-22T15:03:04;5.53;;;4.73;;
3081;SDS011;1551;51.046;7.010;2023-06-22T15:05:55;6.90;;;5.40;;
3081;SDS011;1551;51.046;7.010;2023-06-22T15:08:45;7.53;;;5.05;;
3081;SDS011;1551;51.046;7.010;2023-06-22T15:11:34;7.23;;;5.10;;
3081;SDS011;1551;51.046;7.010;2023-06-22T15:14:23;9.00;;;5.72;;
3081;SDS011;1551;51.046;7.010;2023-06-22T15:17:13;8.45;;;6.00;;
3081;SDS011;1551;51.046;7.010;2023-06-22T15:20:04;8.90;;;6.90;;
3081;SDS011;1551;51.046;7.010;2023-06-22T15:22:54;7.68;;;5.75;;
3081;SDS011;1551;51.046;7.010;2023-06-22T15:25:43;8.75;;;6.47;;
3081;SDS011;1551;51.046;7.010;2023-06-22T15:28:33;8.07;;;6.18;;
3081;SDS011;1551;51.046;7.010;2023-06-22T15:31:23;8.80;;;5.60;;
3081;SDS011;1551;51.046;7.010;2023-06-22T15:34:12;7.53;;;6.07;;
3081;SDS011;1551;51.046;7.010;2023-06-22T15:37:02;7.45;;;5.35;;
3081;SDS011;1551;51.046;7.010;2023-06-22T15:39:51;8.60;;;5.27;;
3081;SDS011;1551;51.046;7.010;2023-06-22T15:42:41;9.95;;;5.85;;
3081;SDS011;1551;51.046;7.010;2023-06-22T15:45:29;7.82;;;6.03;;
3081;SDS011;1551;51.046;7.010;2023-06-22T15:48:18;7.57;;;5.47;;
3081;SDS011;1551;51.046;7.010;2023-06-22T15:51:07;8.25;;;5.50;;
3081;SDS011;1551;51.046;7.010;2023-06-22T15:53:56;7.85;;;5.28;;
3081;SDS011;1551;51.046;7.010;2023-06-22T15:56:46;6.70;;;5.47;;
3081;SDS011;1551;51.046;7.010;2023-06-22T15:59:35;9.50;;;6.90;;
3081;SDS011;1551;51.046;7.010;2023-06-22T16:02:23;10.55;;;5.78;;
3081;SDS011;1551;51.046;7.010;2023-06-22T16:05:15;9.53;;;5.43;;
3081;SDS011;1551;51.046;7.010;2023-06-22T16:08:07;6.90;;;5.82;;
3081;SDS011;1551;51.046;7.010;2023-06-22T16:11:00;7.15;;;6.15;;
3081;SDS011;1551;51.046;7.010;2023-06-22T16:13:48;8.57;;;6.45;;
3081;SDS011;1551;51.046;7.010;2023-06-22T16:16:37;7.55;;;5.80;;
3081;SDS011;1551;51.046;7.010;2023-06-22T16:19:26;7.45;;;5.75;;
3081;SDS011;1551;51.046;7.010;2023-06-22T16:22:15;7.88;;;5.93;;
3081;SDS011;1551;51.046;7.010;2023-06-22T16:25:06;8.15;;;6.30;;
3081;SDS011;1551;51.046;7.010;2023-06-22T16:27:55;7.70;;;5.70;;
3081;SDS011;1551;51.046;7.010;2023-06-22T16:30:44;7.82;;;5.55;;
3081;SDS011;1551;51.046;7.010;2023-06-22T16:33:33;7.05;;;6.10;;
3081;SDS011;1551;51.046;7.010;2023-06-22T16:36:22;7.00;;;6.00;;
3081;SDS011;1551;51.046;7.010;2023-06-22T16:39:11;6.75;;;5.90;;
3081;SDS011;1551;51.046;7.010;2023-06-22T16:42:00;6.75;;;5.95;;
3081;SDS011;1551;51.046;7.010;2023-06-22T16:44:50;6.47;;;5.53;;
3081;SDS011;1551;51.046;7.010;2023-06-22T16:47:39;6.40;;;5.60;;
3081;SDS011;1551;51.046;7.010;2023-06-22T16:50:28;7.55;;;5.68;;
3081;SDS011;1551;51.046;7.010;2023-06-22T16:53:17;7.57;;;5.80;;
3081;SDS011;1551;51.046;7.010;2023-06-22T16:56:09;7.40;;;5.90;;
3081;SDS011;1551;51.046;7.010;2023-06-22T16:58:59;6.82;;;5.00;;
3081;SDS011;1551;51.046;7.010;2023-06-22T17:01:49;9.32;;;6.13;;
3081;SDS011;1551;51.046;7.010;2023-06-22T17:04:41;7.70;;;6.28;;
3081;SDS011;1551;51.046;7.010;2023-06-22T17:07:33;7.20;;;5.97;;
3081;SDS011;1551;51.046;7.010;2023-06-22T17:10:26;8.00;;;6.27;;
3081;SDS011;1551;51.046;7.010;2023-06-22T17:13:15;7.80;;;7.00;;
3081;SDS011;1551;51.046;7.010;2023-06-22T17:16:04;10.60;;;6.70;;
3081;SDS011;1551;51.046;7.010;2023-06-22T17:18:58;8.50;;;7.40;;
3081;SDS011;1551;51.046;7.010;2023-06-22T17:21:52;8.10;;;6.07;;
3081;SDS011;1551;51.046;7.010;2023-06-22T17:24:41;8.15;;;6.60;;
3081;SDS011;1551;51.046;7.010;2023-06-22T17:27:32;6.22;;;5.35;;
3081;SDS011;1551;51.046;7.010;2023-06-22T17:30:22;7.85;;;6.05;;
3081;SDS011;1551;51.046;7.010;2023-06-22T17:33:14;7.20;;;5.43;;
3081;SDS011;1551;51.046;7.010;2023-06-22T17:36:11;4.75;;;3.90;;
3081;SDS011;1551;51.046;7.010;2023-06-22T17:39:02;5.28;;;4.38;;
3081;SDS011;1551;51.046;7.010;2023-06-22T17:41:51;6.68;;;5.10;;
3081;SDS011;1551;51.046;7.010;2023-06-22T17:44:40;6.35;;;4.88;;
3081;SDS011;1551;51.046;7.010;2023-06-22T17:47:30;7.30;;;5.00;;
3081;SDS011;1551;51.046;7.010;2023-06-22T17:50:22;6.57;;;5.38;;
3081;SDS011;1551;51.046;7.010;2023-06-22T17:53:13;7.68;;;5.40;;
3081;SDS011;1551;51.046;7.010;2023-06-22T17:56:01;7.10;;;5.88;;
3081;SDS011;1551;51.046;7.010;2023-06-22T17:58:52;7.00;;;5.40;;
3081;SDS011;1551;51.046;7.010;2023-06-22T18:01:41;7.23;;;4.90;;
3081;SDS011;1551;51.046;7.010;2023-06-22T18:04:31;9.98;;;5.78;;
3081;SDS011;1551;51.046;7.010;2023-06-22T18:07:20;6.50;;;5.38;;
3081;SDS011;1551;51.046;7.010;2023-06-22T18:10:09;5.72;;;5.13;;
3081;SDS011;1551;51.046;7.010;2023-06-22T18:12:59;7.60;;;5.30;;
3081;SDS011;1551;51.046;7.010;2023-06-22T18:15:49;6.93;;;5.00;;
3081;SDS011;1551;51.046;7.010;2023-06-22T18:18:40;6.55;;;5.40;;
3081;SDS011;1551;51.046;7.010;2023-06-22T18:21:29;7.07;;;4.78;;
3081;SDS011;1551;51.046;7.010;2023-06-22T18:24:19;6.90;;;4.70;;
3081;SDS011;1551;51.046;7.010;2023-06-22T18:27:08;6.18;;;4.93;;
3081;SDS011;1551;51.046;7.010;2023-06-22T18:30:03;7.10;;;5.00;;
3081;SDS011;1551;51.046;7.010;2023-06-22T18:32:53;6.05;;;5.45;;
3081;SDS011;1551;51.046;7.010;2023-06-22T18:35:42;7.28;;;6.18;;